sensor_id;sensor_type;location;lat;lon;timestamp;pressure;altitude;pressure_sealevel;temperature
44429;BMP180;30134;47.866;-4.222;2022-07-01T00:00:17;101874.00;;;26.80
44429;BMP180;30134;47.866;-4.222;2022-07-01T00:02:43;101863.00;;;26.90
44429;BMP180;30134;47.866;-4.222;2022-07-01T00:05:09;101862.00;;;26.80
44429;BMP180;30134;47.866;-4.222;2022-07-01T00:07:35;101876.00;;;26.80
44429;BMP180;30134;47.866;-4.222;2022-07-01T00:10:02;101870.00;;;26.80
44429;BMP180;30134;47.866;-4.222;2022-07-01T00:12:27;101869.00;;;26.80
44429;BMP180;30134;47.866;-4.222;2022-07-01T00:14:53;101883.00;;;26.90
44429;BMP180;30134;47.866;-4.222;2022-07-01T00:17:19;101871.00;;;26.80
44429;BMP180;30134;47.866;-4.222;2022-07-01T00:19:45;101874.00;;;26.80
44429;BMP180;30134;47.866;-4.222;2022-07-01T00:22:11;101877.00;;;26.80
44429;BMP180;30134;47.866;-4.222;2022-07-01T00:24:37;101874.00;;;26.80
44429;BMP180;30134;47.866;-4.222;2022-07-01T00:27:04;101881.00;;;26.80
44429;BMP180;30134;47.866;-4.222;2022-07-01T00:29:30;101880.00;;;26.70
44429;BMP180;30134;47.866;-4.222;2022-07-01T00:31:56;101881.00;;;26.80
44429;BMP180;30134;47.866;-4.222;2022-07-01T00:34:22;101876.00;;;26.80
44429;BMP180;30134;47.866;-4.222;2022-07-01T00:36:47;101880.00;;;26.80
44429;BMP180;30134;47.866;-4.222;2022-07-01T00:39:13;101883.00;;;26.80
44429;BMP180;30134;47.866;-4.222;2022-07-01T00:41:39;101883.00;;;26.80
44429;BMP180;30134;47.866;-4.222;2022-07-01T00:44:05;101872.00;;;26.80
44429;BMP180;30134;47.866;-4.222;2022-07-01T00:46:32;101873.00;;;26.80
44429;BMP180;30134;47.866;-4.222;2022-07-01T00:48:59;101870.00;;;26.80
44429;BMP180;30134;47.866;-4.222;2022-07-01T00:51:28;101870.00;;;26.80
44429;BMP180;30134;47.866;-4.222;2022-07-01T00:53:55;101869.00;;;26.80
44429;BMP180;30134;47.866;-4.222;2022-07-01T00:56:23;101862.00;;;26.70
44429;BMP180;30134;47.866;-4.222;2022-07-01T00:58:50;101863.00;;;26.70
44429;BMP180;30134;47.866;-4.222;2022-07-01T01:01:16;101864.00;;;26.70
44429;BMP180;30134;47.866;-4.222;2022-07-01T01:03:42;101864.00;;;26.70
44429;BMP180;30134;47.866;-4.222;2022-07-01T01:06:09;101865.00;;;26.70
44429;BMP180;30134;47.866;-4.222;2022-07-01T01:08:37;101870.00;;;26.80
44429;BMP180;30134;47.866;-4.222;2022-07-01T01:11:04;101863.00;;;26.80
44429;BMP180;30134;47.866;-4.222;2022-07-01T01:13:31;101869.00;;;26.70
44429;BMP180;30134;47.866;-4.222;2022-07-01T01:15:58;101869.00;;;26.70
44429;BMP180;30134;47.866;-4.222;2022-07-01T01:18:24;101864.00;;;26.80
44429;BMP180;30134;47.866;-4.222;2022-07-01T01:20:54;101873.00;;;26.60
44429;BMP180;30134;47.866;-4.222;2022-07-01T01:23:23;101870.00;;;26.70
44429;BMP180;30134;47.866;-4.222;2022-07-01T01:25:49;101869.00;;;26.70
44429;BMP180;30134;47.866;-4.222;2022-07-01T01:28:15;101872.00;;;26.80
44429;BMP180;30134;47.866;-4.222;2022-07-01T01:30:42;101869.00;;;26.70
44429;BMP180;30134;47.866;-4.222;2022-07-01T01:33:09;101870.00;;;26.80
44429;BMP180;30134;47.866;-4.222;2022-07-01T01:35:37;101872.00;;;26.70
44429;BMP180;30134;47.866;-4.222;2022-07-01T01:38:05;101870.00;;;26.80
44429;BMP180;30134;47.866;-4.222;2022-07-01T01:40:31;101880.00;;;26.60
44429;BMP180;30134;47.866;-4.222;2022-07-01T01:42:56;101874.00;;;26.80
44429;BMP180;30134;47.866;-4.222;2022-07-01T01:45:23;101875.00;;;26.70
44429;BMP180;30134;47.866;-4.222;2022-07-01T01:47:49;101877.00;;;26.70
44429;BMP180;30134;47.866;-4.222;2022-07-01T01:50:15;101875.00;;;26.70
44429;BMP180;30134;47.866;-4.222;2022-07-01T01:52:42;101878.00;;;26.70
44429;BMP180;30134;47.866;-4.222;2022-07-01T01:55:09;101876.00;;;26.70
44429;BMP180;30134;47.866;-4.222;2022-07-01T01:57:35;101882.00;;;26.80
44429;BMP180;30134;47.866;-4.222;2022-07-01T02:00:01;101880.00;;;26.80
44429;BMP180;30134;47.866;-4.222;2022-07-01T02:02:27;101877.00;;;26.70
44429;BMP180;30134;47.866;-4.222;2022-07-01T02:04:53;101886.00;;;26.70
44429;BMP180;30134;47.866;-4.222;2022-07-01T02:07:19;101883.00;;;26.70
44429;BMP180;30134;47.866;-4.222;2022-07-01T02:09:46;101886.00;;;26.80
44429;BMP180;30134;47.866;-4.222;2022-07-01T02:12:12;101892.00;;;26.70
44429;BMP180;30134;47.866;-4.222;2022-07-01T02:14:38;101884.00;;;26.70
44429;BMP180;30134;47.866;-4.222;2022-07-01T02:17:04;101885.00;;;26.70
44429;BMP180;30134;47.866;-4.222;2022-07-01T02:19:30;101884.00;;;26.70
44429;BMP180;30134;47.866;-4.222;2022-07-01T02:21:55;101886.00;;;26.70
44429;BMP180;30134;47.866;-4.222;2022-07-01T02:24:21;101889.00;;;26.70
44429;BMP180;30134;47.866;-4.222;2022-07-01T02:26:47;101891.00;;;26.70
44429;BMP180;30134;47.866;-4.222;2022-07-01T02:29:13;101894.00;;;26.70
44429;BMP180;30134;47.866;-4.222;2022-07-01T02:31:39;101894.00;;;26.70
44429;BMP180;30134;47.866;-4.222;2022-07-01T02:34:05;101896.00;;;26.60
44429;BMP180;30134;47.866;-4.222;2022-07-01T02:36:31;101895.00;;;26.70
44429;BMP180;30134;47.866;-4.222;2022-07-01T02:38:57;101897.00;;;26.60
44429;BMP180;30134;47.866;-4.222;2022-07-01T02:41:23;101901.00;;;26.70
44429;BMP180;30134;47.866;-4.222;2022-07-01T02:43:49;101890.00;;;26.60
44429;BMP180;30134;47.866;-4.222;2022-07-01T02:46:14;101886.00;;;26.70
44429;BMP180;30134;47.866;-4.222;2022-07-01T02:48:40;101888.00;;;26.60
44429;BMP180;30134;47.866;-4.222;2022-07-01T02:51:06;101885.00;;;26.70
44429;BMP180;30134;47.866;-4.222;2022-07-01T02:53:32;101887.00;;;26.70
44429;BMP180;30134;47.866;-4.222;2022-07-01T02:55:58;101890.00;;;26.60
44429;BMP180;30134;47.866;-4.222;2022-07-01T02:58:25;101886.00;;;26.70
44429;BMP180;30134;47.866;-4.222;2022-07-01T03:00:52;101882.00;;;26.70
44429;BMP180;30134;47.866;-4.222;2022-07-01T03:03:19;101889.00;;;26.70
44429;BMP180;30134;47.866;-4.222;2022-07-01T03:05:46;101888.00;;;26.50
44429;BMP180;30134;47.866;-4.222;2022-07-01T03:08:13;101890.00;;;26.60
44429;BMP180;30134;47.866;-4.222;2022-07-01T03:10:39;101894.00;;;26.60
44429;BMP180;30134;47.866;-4.222;2022-07-01T03:13:05;101898.00;;;26.70
44429;BMP180;30134;47.866;-4.222;2022-07-01T03:15:31;101895.00;;;26.60
44429;BMP180;30134;47.866;-4.222;2022-07-01T03:17:57;101893.00;;;26.70
44429;BMP180;30134;47.866;-4.222;2022-07-01T03:20:23;101893.00;;;26.60
44429;BMP180;30134;47.866;-4.222;2022-07-01T03:22:49;101892.00;;;26.60
44429;BMP180;30134;47.866;-4.222;2022-07-01T03:25:16;101890.00;;;26.60
44429;BMP180;30134;47.866;-4.222;2022-07-01T03:27:42;101890.00;;;26.60
44429;BMP180;30134;47.866;-4.222;2022-07-01T03:30:12;101894.00;;;26.60
44429;BMP180;30134;47.866;-4.222;2022-07-01T03:32:39;101895.00;;;26.60
44429;BMP180;30134;47.866;-4.222;2022-07-01T03:35:05;101895.00;;;26.60
44429;BMP180;30134;47.866;-4.222;2022-07-01T03:37:51;101898.00;;;26.60
44429;BMP180;30134;47.866;-4.222;2022-07-01T03:40:17;101905.00;;;26.60
44429;BMP180;30134;47.866;-4.222;2022-07-01T03:42:43;101902.00;;;26.60
44429;BMP180;30134;47.866;-4.222;2022-07-01T03:45:09;101903.00;;;26.60
44429;BMP180;30134;47.866;-4.222;2022-07-01T03:47:35;101904.00;;;26.60
44429;BMP180;30134;47.866;-4.222;2022-07-01T03:50:01;101901.00;;;26.60
44429;BMP180;30134;47.866;-4.222;2022-07-01T03:52:27;101902.00;;;26.60
44429;BMP180;30134;47.866;-4.222;2022-07-01T03:54:53;101903.00;;;26.60
44429;BMP180;30134;47.866;-4.222;2022-07-01T03:57:19;101899.00;;;26.60
44429;BMP180;30134;47.866;-4.222;2022-07-01T03:59:47;101905.00;;;26.60
44429;BMP180;30134;47.866;-4.222;2022-07-01T04:02:13;101899.00;;;26.60
44429;BMP180;30134;47.866;-4.222;2022-07-01T04:04:38;101908.00;;;26.60
44429;BMP180;30134;47.866;-4.222;2022-07-01T04:07:06;101908.00;;;26.50
44429;BMP180;30134;47.866;-4.222;2022-07-01T04:09:33;101908.00;;;26.60
44429;BMP180;30134;47.866;-4.222;2022-07-01T04:11:59;101907.00;;;26.60
44429;BMP180;30134;47.866;-4.222;2022-07-01T04:14:25;101907.00;;;26.60
44429;BMP180;30134;47.866;-4.222;2022-07-01T04:16:51;101909.00;;;26.60
44429;BMP180;30134;47.866;-4.222;2022-07-01T04:19:18;101905.00;;;26.50
44429;BMP180;30134;47.866;-4.222;2022-07-01T04:21:44;101912.00;;;26.50
44429;BMP180;30134;47.866;-4.222;2022-07-01T04:24:28;101909.00;;;26.50
44429;BMP180;30134;47.866;-4.222;2022-07-01T04:26:58;101925.00;;;26.50
44429;BMP180;30134;47.866;-4.222;2022-07-01T04:29:26;101918.00;;;26.60
44429;BMP180;30134;47.866;-4.222;2022-07-01T04:31:55;101918.00;;;26.50
44429;BMP180;30134;47.866;-4.222;2022-07-01T04:34:21;101921.00;;;26.60
44429;BMP180;30134;47.866;-4.222;2022-07-01T04:36:51;101921.00;;;26.50
44429;BMP180;30134;47.866;-4.222;2022-07-01T04:39:17;101927.00;;;26.50
44429;BMP180;30134;47.866;-4.222;2022-07-01T04:41:44;101925.00;;;26.60
44429;BMP180;30134;47.866;-4.222;2022-07-01T04:44:25;101923.00;;;26.60
44429;BMP180;30134;47.866;-4.222;2022-07-01T04:46:51;101933.00;;;26.50
44429;BMP180;30134;47.866;-4.222;2022-07-01T04:49:17;101924.00;;;26.50
44429;BMP180;30134;47.866;-4.222;2022-07-01T04:51:43;101925.00;;;26.50
44429;BMP180;30134;47.866;-4.222;2022-07-01T04:54:09;101918.00;;;26.50
44429;BMP180;30134;47.866;-4.222;2022-07-01T04:56:36;101923.00;;;26.50
44429;BMP180;30134;47.866;-4.222;2022-07-01T04:59:04;101929.00;;;26.50
44429;BMP180;30134;47.866;-4.222;2022-07-01T05:01:30;101928.00;;;26.60
44429;BMP180;30134;47.866;-4.222;2022-07-01T05:03:57;101927.00;;;26.50
44429;BMP180;30134;47.866;-4.222;2022-07-01T05:06:23;101930.00;;;26.40
44429;BMP180;30134;47.866;-4.222;2022-07-01T05:08:49;101922.00;;;26.60
44429;BMP180;30134;47.866;-4.222;2022-07-01T05:11:15;101927.00;;;26.50
44429;BMP180;30134;47.866;-4.222;2022-07-01T05:13:41;101928.00;;;26.60
44429;BMP180;30134;47.866;-4.222;2022-07-01T05:16:07;101940.00;;;26.50
44429;BMP180;30134;47.866;-4.222;2022-07-01T05:18:39;101942.00;;;26.50
44429;BMP180;30134;47.866;-4.222;2022-07-01T05:21:24;101946.00;;;26.50
44429;BMP180;30134;47.866;-4.222;2022-07-01T05:24:09;101947.00;;;26.40
44429;BMP180;30134;47.866;-4.222;2022-07-01T05:26:35;101948.00;;;26.50
44429;BMP180;30134;47.866;-4.222;2022-07-01T05:29:01;101947.00;;;26.50
44429;BMP180;30134;47.866;-4.222;2022-07-01T05:31:28;101949.00;;;26.50
44429;BMP180;30134;47.866;-4.222;2022-07-01T05:33:54;101947.00;;;26.40
44429;BMP180;30134;47.866;-4.222;2022-07-01T05:36:20;101949.00;;;26.40
44429;BMP180;30134;47.866;-4.222;2022-07-01T05:38:48;101949.00;;;26.50
44429;BMP180;30134;47.866;-4.222;2022-07-01T05:41:14;101947.00;;;26.50
44429;BMP180;30134;47.866;-4.222;2022-07-01T05:43:41;101945.00;;;26.50
44429;BMP180;30134;47.866;-4.222;2022-07-01T05:46:07;101953.00;;;26.50
44429;BMP180;30134;47.866;-4.222;2022-07-01T05:48:33;101950.00;;;26.50
44429;BMP180;30134;47.866;-4.222;2022-07-01T05:50:59;101958.00;;;26.40
44429;BMP180;30134;47.866;-4.222;2022-07-01T05:53:25;101956.00;;;26.50
44429;BMP180;30134;47.866;-4.222;2022-07-01T05:55:51;101963.00;;;26.50
44429;BMP180;30134;47.866;-4.222;2022-07-01T05:58:17;101966.00;;;26.50
44429;BMP180;30134;47.866;-4.222;2022-07-01T06:00:43;101967.00;;;26.30
44429;BMP180;30134;47.866;-4.222;2022-07-01T06:03:11;101963.00;;;26.50
44429;BMP180;30134;47.866;-4.222;2022-07-01T06:05:38;101962.00;;;26.40
44429;BMP180;30134;47.866;-4.222;2022-07-01T06:08:05;101962.00;;;26.40
44429;BMP180;30134;47.866;-4.222;2022-07-01T06:10:35;101964.00;;;26.40
44429;BMP180;30134;47.866;-4.222;2022-07-01T06:13:02;101961.00;;;26.50
44429;BMP180;30134;47.866;-4.222;2022-07-01T06:15:29;101964.00;;;26.40
44429;BMP180;30134;47.866;-4.222;2022-07-01T06:17:55;101964.00;;;26.50
44429;BMP180;30134;47.866;-4.222;2022-07-01T06:20:22;101971.00;;;26.40
44429;BMP180;30134;47.866;-4.222;2022-07-01T06:22:48;101975.00;;;26.50
44429;BMP180;30134;47.866;-4.222;2022-07-01T06:25:14;101969.00;;;26.50
44429;BMP180;30134;47.866;-4.222;2022-07-01T06:27:42;101976.00;;;26.50
44429;BMP180;30134;47.866;-4.222;2022-07-01T06:30:10;101977.00;;;26.40
44429;BMP180;30134;47.866;-4.222;2022-07-01T06:32:37;101981.00;;;26.50
44429;BMP180;30134;47.866;-4.222;2022-07-01T06:35:05;101978.00;;;26.50
44429;BMP180;30134;47.866;-4.222;2022-07-01T06:37:31;101973.00;;;26.50
44429;BMP180;30134;47.866;-4.222;2022-07-01T06:40:00;101975.00;;;26.50
44429;BMP180;30134;47.866;-4.222;2022-07-01T06:42:26;101982.00;;;26.50
44429;BMP180;30134;47.866;-4.222;2022-07-01T06:44:52;101977.00;;;26.40
44429;BMP180;30134;47.866;-4.222;2022-07-01T06:47:18;101988.00;;;26.50
44429;BMP180;30134;47.866;-4.222;2022-07-01T06:49:44;101989.00;;;26.50
44429;BMP180;30134;47.866;-4.222;2022-07-01T06:52:10;101986.00;;;26.40
44429;BMP180;30134;47.866;-4.222;2022-07-01T06:54:36;101990.00;;;26.50
44429;BMP180;30134;47.866;-4.222;2022-07-01T06:57:04;101989.00;;;26.50
44429;BMP180;30134;47.866;-4.222;2022-07-01T06:59:30;101994.00;;;26.50
44429;BMP180;30134;47.866;-4.222;2022-07-01T07:01:56;102002.00;;;26.40
44429;BMP180;30134;47.866;-4.222;2022-07-01T07:04:22;102000.00;;;26.50
44429;BMP180;30134;47.866;-4.222;2022-07-01T07:06:48;101996.00;;;26.40
44429;BMP180;30134;47.866;-4.222;2022-07-01T07:09:17;101999.00;;;26.50
44429;BMP180;30134;47.866;-4.222;2022-07-01T07:11:43;101997.00;;;26.50
44429;BMP180;30134;47.866;-4.222;2022-07-01T07:14:09;101989.00;;;26.50
44429;BMP180;30134;47.866;-4.222;2022-07-01T07:16:35;101995.00;;;26.50
44429;BMP180;30134;47.866;-4.222;2022-07-01T07:19:01;101991.00;;;26.40
44429;BMP180;30134;47.866;-4.222;2022-07-01T07:21:28;101991.00;;;26.60
44429;BMP180;30134;47.866;-4.222;2022-07-01T07:23:55;101987.00;;;26.50
44429;BMP180;30134;47.866;-4.222;2022-07-01T07:26:21;101986.00;;;26.50
44429;BMP180;30134;47.866;-4.222;2022-07-01T07:28:48;101995.00;;;26.50
44429;BMP180;30134;47.866;-4.222;2022-07-01T07:31:14;101981.00;;;26.40
44429;BMP180;30134;47.866;-4.222;2022-07-01T07:33:40;101987.00;;;26.50
44429;BMP180;30134;47.866;-4.222;2022-07-01T07:36:06;101991.00;;;26.50
44429;BMP180;30134;47.866;-4.222;2022-07-01T07:38:31;101993.00;;;26.50
44429;BMP180;30134;47.866;-4.222;2022-07-01T07:40:57;101994.00;;;26.30
44429;BMP180;30134;47.866;-4.222;2022-07-01T07:43:26;102000.00;;;26.50
44429;BMP180;30134;47.866;-4.222;2022-07-01T07:45:52;101997.00;;;26.40
44429;BMP180;30134;47.866;-4.222;2022-07-01T07:48:18;101991.00;;;26.50
44429;BMP180;30134;47.866;-4.222;2022-07-01T07:50:44;101990.00;;;26.50
44429;BMP180;30134;47.866;-4.222;2022-07-01T07:53:10;102003.00;;;26.60
44429;BMP180;30134;47.866;-4.222;2022-07-01T07:55:37;101996.00;;;26.50
44429;BMP180;30134;47.866;-4.222;2022-07-01T07:58:05;102000.00;;;26.50
44429;BMP180;30134;47.866;-4.222;2022-07-01T08:00:32;102001.00;;;26.50
44429;BMP180;30134;47.866;-4.222;2022-07-01T08:02:58;102003.00;;;26.50
44429;BMP180;30134;47.866;-4.222;2022-07-01T08:05:24;101994.00;;;26.50
44429;BMP180;30134;47.866;-4.222;2022-07-01T08:07:50;101996.00;;;26.40
44429;BMP180;30134;47.866;-4.222;2022-07-01T08:10:17;102002.00;;;26.50
44429;BMP180;30134;47.866;-4.222;2022-07-01T08:12:43;101996.00;;;26.40
44429;BMP180;30134;47.866;-4.222;2022-07-01T08:15:12;101999.00;;;26.40
44429;BMP180;30134;47.866;-4.222;2022-07-01T08:17:38;101997.00;;;26.50
44429;BMP180;30134;47.866;-4.222;2022-07-01T08:20:05;101996.00;;;26.50
44429;BMP180;30134;47.866;-4.222;2022-07-01T08:22:31;101995.00;;;26.40
44429;BMP180;30134;47.866;-4.222;2022-07-01T08:25:00;101997.00;;;26.50
44429;BMP180;30134;47.866;-4.222;2022-07-01T08:27:26;101994.00;;;26.50
44429;BMP180;30134;47.866;-4.222;2022-07-01T08:29:52;101997.00;;;26.50
44429;BMP180;30134;47.866;-4.222;2022-07-01T08:32:17;101998.00;;;26.50
44429;BMP180;30134;47.866;-4.222;2022-07-01T08:34:44;102002.00;;;26.40
44429;BMP180;30134;47.866;-4.222;2022-07-01T08:37:11;102002.00;;;26.50
44429;BMP180;30134;47.866;-4.222;2022-07-01T08:39:38;102003.00;;;26.50
44429;BMP180;30134;47.866;-4.222;2022-07-01T08:42:04;101998.00;;;26.50
44429;BMP180;30134;47.866;-4.222;2022-07-01T08:44:32;102000.00;;;26.50
44429;BMP180;30134;47.866;-4.222;2022-07-01T08:46:58;101998.00;;;26.50
44429;BMP180;30134;47.866;-4.222;2022-07-01T08:49:24;102003.00;;;26.40
44429;BMP180;30134;47.866;-4.222;2022-07-01T08:51:50;102002.00;;;26.10
44429;BMP180;30134;47.866;-4.222;2022-07-01T08:54:16;101998.00;;;25.90
44429;BMP180;30134;47.866;-4.222;2022-07-01T08:56:42;102008.00;;;25.90
44429;BMP180;30134;47.866;-4.222;2022-07-01T08:59:21;102004.00;;;25.70
44429;BMP180;30134;47.866;-4.222;2022-07-01T09:02:01;102008.00;;;25.80
44429;BMP180;30134;47.866;-4.222;2022-07-01T09:04:28;102003.00;;;25.80
44429;BMP180;30134;47.866;-4.222;2022-07-01T09:07:07;102003.00;;;25.70
44429;BMP180;30134;47.866;-4.222;2022-07-01T09:09:38;102007.00;;;25.80
44429;BMP180;30134;47.866;-4.222;2022-07-01T09:12:05;102008.00;;;25.70
44429;BMP180;30134;47.866;-4.222;2022-07-01T09:14:34;102002.00;;;25.70
44429;BMP180;30134;47.866;-4.222;2022-07-01T09:17:05;101997.00;;;25.60
44429;BMP180;30134;47.866;-4.222;2022-07-01T09:19:37;102002.00;;;25.50
44429;BMP180;30134;47.866;-4.222;2022-07-01T09:22:04;102001.00;;;25.50
44429;BMP180;30134;47.866;-4.222;2022-07-01T09:24:41;102011.00;;;25.50
44429;BMP180;30134;47.866;-4.222;2022-07-01T09:27:13;102006.00;;;25.50
44429;BMP180;30134;47.866;-4.222;2022-07-01T09:29:50;102009.00;;;25.50
44429;BMP180;30134;47.866;-4.222;2022-07-01T09:32:21;102013.00;;;25.50
44429;BMP180;30134;47.866;-4.222;2022-07-01T09:34:51;102016.00;;;25.50
44429;BMP180;30134;47.866;-4.222;2022-07-01T09:37:22;102013.00;;;25.40
44429;BMP180;30134;47.866;-4.222;2022-07-01T09:39:58;102014.00;;;25.40
44429;BMP180;30134;47.866;-4.222;2022-07-01T09:42:26;102015.00;;;25.50
44429;BMP180;30134;47.866;-4.222;2022-07-01T09:44:57;102020.00;;;25.40
44429;BMP180;30134;47.866;-4.222;2022-07-01T09:47:26;102021.00;;;25.30
44429;BMP180;30134;47.866;-4.222;2022-07-01T09:49:53;102023.00;;;25.40
44429;BMP180;30134;47.866;-4.222;2022-07-01T09:52:20;102023.00;;;25.40
44429;BMP180;30134;47.866;-4.222;2022-07-01T09:54:48;102013.00;;;25.30
44429;BMP180;30134;47.866;-4.222;2022-07-01T09:57:19;102022.00;;;25.30
44429;BMP180;30134;47.866;-4.222;2022-07-01T09:59:48;102032.00;;;25.30
44429;BMP180;30134;47.866;-4.222;2022-07-01T10:02:19;102023.00;;;25.30
44429;BMP180;30134;47.866;-4.222;2022-07-01T10:04:56;102028.00;;;25.20
44429;BMP180;30134;47.866;-4.222;2022-07-01T10:13:27;102019.00;;;25.20
44429;BMP180;30134;47.866;-4.222;2022-07-01T10:15:56;102029.00;;;25.20
44429;BMP180;30134;47.866;-4.222;2022-07-01T10:18:27;102022.00;;;25.10
44429;BMP180;30134;47.866;-4.222;2022-07-01T10:20:56;102026.00;;;25.10
44429;BMP180;30134;47.866;-4.222;2022-07-01T10:23:41;102020.00;;;25.10
44429;BMP180;30134;47.866;-4.222;2022-07-01T10:26:08;102024.00;;;25.10
44429;BMP180;30134;47.866;-4.222;2022-07-01T10:28:41;102023.00;;;25.00
44429;BMP180;30134;47.866;-4.222;2022-07-01T10:31:10;102028.00;;;25.00
44429;BMP180;30134;47.866;-4.222;2022-07-01T10:44:20;102035.00;;;25.10
44429;BMP180;30134;47.866;-4.222;2022-07-01T10:46:48;102048.00;;;25.10
44429;BMP180;30134;47.866;-4.222;2022-07-01T10:52:14;102054.00;;;24.90
44429;BMP180;30134;47.866;-4.222;2022-07-01T10:54:51;102053.00;;;25.00
44429;BMP180;30134;47.866;-4.222;2022-07-01T10:57:22;102053.00;;;25.00
44429;BMP180;30134;47.866;-4.222;2022-07-01T11:02:30;102057.00;;;25.00
44429;BMP180;30134;47.866;-4.222;2022-07-01T11:05:07;102050.00;;;25.00
44429;BMP180;30134;47.866;-4.222;2022-07-01T11:07:36;102050.00;;;25.00
44429;BMP180;30134;47.866;-4.222;2022-07-01T11:10:06;102058.00;;;24.90
44429;BMP180;30134;47.866;-4.222;2022-07-01T11:12:33;102058.00;;;24.80
44429;BMP180;30134;47.866;-4.222;2022-07-01T11:15:01;102054.00;;;24.80
44429;BMP180;30134;47.866;-4.222;2022-07-01T11:17:28;102055.00;;;24.80
44429;BMP180;30134;47.866;-4.222;2022-07-01T11:19:57;102066.00;;;24.80
44429;BMP180;30134;47.866;-4.222;2022-07-01T11:22:33;102058.00;;;24.70
44429;BMP180;30134;47.866;-4.222;2022-07-01T11:25:08;102061.00;;;24.80
44429;BMP180;30134;47.866;-4.222;2022-07-01T11:27:36;102059.00;;;24.70
44429;BMP180;30134;47.866;-4.222;2022-07-01T11:30:11;102052.00;;;24.70
44429;BMP180;30134;47.866;-4.222;2022-07-01T11:32:42;102065.00;;;24.70
44429;BMP180;30134;47.866;-4.222;2022-07-01T11:35:16;102052.00;;;24.70
44429;BMP180;30134;47.866;-4.222;2022-07-01T11:38:27;102052.00;;;24.70
44429;BMP180;30134;47.866;-4.222;2022-07-01T11:41:29;102054.00;;;24.70
44429;BMP180;30134;47.866;-4.222;2022-07-01T11:43:55;102051.00;;;24.70
44429;BMP180;30134;47.866;-4.222;2022-07-01T11:46:21;102055.00;;;24.70
44429;BMP180;30134;47.866;-4.222;2022-07-01T11:48:50;102051.00;;;24.80
44429;BMP180;30134;47.866;-4.222;2022-07-01T11:51:22;102059.00;;;24.70
44429;BMP180;30134;47.866;-4.222;2022-07-01T11:53:52;102049.00;;;24.70
44429;BMP180;30134;47.866;-4.222;2022-07-01T11:56:35;102048.00;;;24.70
44429;BMP180;30134;47.866;-4.222;2022-07-01T11:59:04;102055.00;;;24.70
44429;BMP180;30134;47.866;-4.222;2022-07-01T12:01:34;102061.00;;;24.70
44429;BMP180;30134;47.866;-4.222;2022-07-01T12:04:06;102052.00;;;24.70
44429;BMP180;30134;47.866;-4.222;2022-07-01T12:06:34;102067.00;;;24.70
44429;BMP180;30134;47.866;-4.222;2022-07-01T12:09:03;102061.00;;;24.60
44429;BMP180;30134;47.866;-4.222;2022-07-01T12:11:29;102061.00;;;24.70
44429;BMP180;30134;47.866;-4.222;2022-07-01T12:13:57;102058.00;;;24.80
44429;BMP180;30134;47.866;-4.222;2022-07-01T12:16:24;102052.00;;;24.70
44429;BMP180;30134;47.866;-4.222;2022-07-01T12:19:01;102058.00;;;24.60
44429;BMP180;30134;47.866;-4.222;2022-07-01T12:21:29;102059.00;;;24.60
44429;BMP180;30134;47.866;-4.222;2022-07-01T12:24:14;102059.00;;;24.70
44429;BMP180;30134;47.866;-4.222;2022-07-01T12:27:01;102052.00;;;24.70
44429;BMP180;30134;47.866;-4.222;2022-07-01T12:29:30;102050.00;;;24.70
44429;BMP180;30134;47.866;-4.222;2022-07-01T12:32:07;102047.00;;;24.70
44429;BMP180;30134;47.866;-4.222;2022-07-01T12:34:47;102051.00;;;24.70
44429;BMP180;30134;47.866;-4.222;2022-07-01T12:40:03;102052.00;;;24.80
44429;BMP180;30134;47.866;-4.222;2022-07-01T12:42:31;102050.00;;;24.80
44429;BMP180;30134;47.866;-4.222;2022-07-01T12:45:17;102054.00;;;24.70
44429;BMP180;30134;47.866;-4.222;2022-07-01T12:47:56;102048.00;;;24.70
44429;BMP180;30134;47.866;-4.222;2022-07-01T12:50:30;102056.00;;;24.70
44429;BMP180;30134;47.866;-4.222;2022-07-01T12:55:47;102048.00;;;24.80
44429;BMP180;30134;47.866;-4.222;2022-07-01T12:58:18;102054.00;;;24.80
44429;BMP180;30134;47.866;-4.222;2022-07-01T13:00:48;102051.00;;;24.80
44429;BMP180;30134;47.866;-4.222;2022-07-01T13:03:17;102050.00;;;24.80
44429;BMP180;30134;47.866;-4.222;2022-07-01T13:05:43;102055.00;;;24.80
44429;BMP180;30134;47.866;-4.222;2022-07-01T13:08:10;102050.00;;;24.70
44429;BMP180;30134;47.866;-4.222;2022-07-01T13:10:37;102050.00;;;24.80
44429;BMP180;30134;47.866;-4.222;2022-07-01T13:13:04;102046.00;;;24.80
44429;BMP180;30134;47.866;-4.222;2022-07-01T13:15:31;102054.00;;;24.80
44429;BMP180;30134;47.866;-4.222;2022-07-01T13:17:58;102052.00;;;24.70
44429;BMP180;30134;47.866;-4.222;2022-07-01T13:20:24;102055.00;;;24.70
44429;BMP180;30134;47.866;-4.222;2022-07-01T13:22:50;102059.00;;;24.80
44429;BMP180;30134;47.866;-4.222;2022-07-01T13:25:16;102057.00;;;24.70
44429;BMP180;30134;47.866;-4.222;2022-07-01T13:27:43;102063.00;;;24.80
44429;BMP180;30134;47.866;-4.222;2022-07-01T13:30:10;102062.00;;;24.80
44429;BMP180;30134;47.866;-4.222;2022-07-01T13:32:39;102063.00;;;24.80
44429;BMP180;30134;47.866;-4.222;2022-07-01T13:35:07;102064.00;;;24.80
44429;BMP180;30134;47.866;-4.222;2022-07-01T13:37:33;102059.00;;;24.80
44429;BMP180;30134;47.866;-4.222;2022-07-01T13:39:59;102067.00;;;24.80
44429;BMP180;30134;47.866;-4.222;2022-07-01T13:42:25;102060.00;;;24.80
44429;BMP180;30134;47.866;-4.222;2022-07-01T13:44:51;102066.00;;;24.70
44429;BMP180;30134;47.866;-4.222;2022-07-01T13:47:17;102065.00;;;24.70
44429;BMP180;30134;47.866;-4.222;2022-07-01T13:49:43;102070.00;;;24.80
44429;BMP180;30134;47.866;-4.222;2022-07-01T13:52:10;102068.00;;;24.80
44429;BMP180;30134;47.866;-4.222;2022-07-01T13:54:37;102075.00;;;24.80
44429;BMP180;30134;47.866;-4.222;2022-07-01T13:57:04;102072.00;;;24.90
44429;BMP180;30134;47.866;-4.222;2022-07-01T13:59:32;102078.00;;;24.80
44429;BMP180;30134;47.866;-4.222;2022-07-01T14:01:58;102075.00;;;24.80
44429;BMP180;30134;47.866;-4.222;2022-07-01T14:04:25;102083.00;;;24.80
44429;BMP180;30134;47.866;-4.222;2022-07-01T14:06:51;102077.00;;;24.90
44429;BMP180;30134;47.866;-4.222;2022-07-01T14:09:17;102078.00;;;24.80
44429;BMP180;30134;47.866;-4.222;2022-07-01T14:11:43;102082.00;;;24.90
44429;BMP180;30134;47.866;-4.222;2022-07-01T14:14:12;102084.00;;;24.80
44429;BMP180;30134;47.866;-4.222;2022-07-01T14:16:38;102088.00;;;24.90